createdAt,value
2023-05-25T00:01:31.132Z,61.99
2023-05-25T00:04:05.103Z,59.82
2023-05-25T00:06:41.376Z,61.00
2023-05-25T00:09:14.588Z,59.52
2023-05-25T00:11:47.827Z,58.09
2023-05-25T00:14:22.620Z,59.25
2023-05-25T00:16:55.821Z,61.20
2023-05-25T00:19:32.410Z,60.01
2023-05-25T00:22:05.899Z,56.71
2023-05-25T00:24:40.170Z,57.15
2023-05-25T00:27:13.305Z,57.54
2023-05-25T00:29:48.296Z,59.62
2023-05-25T00:32:21.536Z,60.01
2023-05-25T00:34:55.823Z,60.26
2023-05-25T00:37:29.063Z,57.79
2023-05-25T00:40:02.344Z,61.15
2023-05-25T00:42:36.538Z,61.58
2023-05-25T00:45:12.288Z,60.84
2023-05-25T00:47:46.819Z,54.55
2023-05-25T00:50:38.244Z,59.65
2023-05-25T00:53:13.873Z,60.24
2023-05-25T00:55:55.688Z,56.84
2023-05-25T00:58:32.452Z,54.81
2023-05-25T01:01:11.801Z,59.70
2023-05-25T01:03:53.975Z,58.59
2023-05-25T01:06:32.125Z,58.58
2023-05-25T01:09:08.203Z,57.02
2023-05-25T01:11:45.609Z,58.45
2023-05-25T01:14:22.217Z,58.91
2023-05-25T01:16:59.021Z,55.68
2023-05-25T01:19:33.862Z,57.28
2023-05-25T01:22:22.210Z,55.09
2023-05-25T01:25:07.900Z,55.40
2023-05-25T01:27:46.124Z,55.74
2023-05-25T01:30:22.823Z,55.49
2023-05-25T01:32:58.206Z,55.64
2023-05-25T01:35:32.919Z,51.96
2023-05-25T01:38:08.464Z,50.60
2023-05-25T01:40:41.719Z,51.67
2023-05-25T01:43:14.967Z,52.47
2023-05-25T01:45:49.255Z,54.15
2023-05-25T01:48:33.947Z,53.85
2023-05-25T01:51:16.672Z,52.65
2023-05-25T01:53:55.892Z,53.42
2023-05-25T01:56:33.510Z,54.72
2023-05-25T01:59:10.075Z,54.96
2023-05-25T02:01:45.169Z,50.79
2023-05-25T02:04:19.704Z,54.08
2023-05-25T02:06:53.474Z,56.07
2023-05-25T02:09:28.295Z,55.22
2023-05-25T02:12:01.540Z,54.15
2023-05-25T02:14:34.756Z,54.96
2023-05-25T02:17:08.112Z,56.93
2023-05-25T02:19:41.424Z,55.19
2023-05-25T02:22:14.625Z,53.05
2023-05-25T02:24:49.407Z,53.18
2023-05-25T02:27:22.613Z,55.16
2023-05-25T02:29:55.951Z,56.10
2023-05-25T02:32:33.703Z,51.79
2023-05-25T02:35:08.801Z,54.23
2023-05-25T02:37:42.024Z,57.13
2023-05-25T02:40:18.715Z,68.66
2023-05-25T02:42:51.873Z,70.33
2023-05-25T02:45:25.165Z,69.06
2023-05-25T02:47:58.420Z,63.66
2023-05-25T02:50:31.611Z,65.56
2023-05-25T02:53:08.554Z,64.20
2023-05-25T02:55:43.494Z,65.57
2023-05-25T02:58:22.484Z,65.99
2023-05-25T03:01:10.413Z,66.23
2023-05-25T03:03:47.305Z,63.13
2023-05-25T03:06:21.558Z,61.52
2023-05-25T03:08:56.775Z,58.88
2023-05-25T03:11:31.823Z,58.63
2023-05-25T03:14:05.961Z,58.58
2023-05-25T03:16:40.454Z,57.99
2023-05-25T03:19:13.793Z,59.40
2023-05-25T03:21:47.058Z,60.61
2023-05-25T03:24:20.427Z,60.28
2023-05-25T03:26:55.784Z,60.65
2023-05-25T03:29:29.306Z,63.19
2023-05-25T03:32:02.952Z,57.90
2023-05-25T03:34:37.938Z,56.16
2023-05-25T03:37:12.399Z,59.40
2023-05-25T03:39:46.013Z,59.02
2023-05-25T03:42:20.715Z,57.77
2023-05-25T03:44:54.285Z,56.21
2023-05-25T03:47:27.455Z,58.46
2023-05-25T03:50:00.916Z,59.52
2023-05-25T03:52:34.138Z,56.81
2023-05-25T03:55:08.677Z,58.79
2023-05-25T03:57:43.584Z,63.99
2023-05-25T04:00:17.393Z,64.46
2023-05-25T04:02:50.666Z,61.63
2023-05-25T04:05:23.909Z,67.54
2023-05-25T04:07:57.637Z,66.06
2023-05-25T04:10:30.858Z,66.51
2023-05-25T04:13:05.439Z,65.43
2023-05-25T04:15:38.731Z,62.37
2023-05-25T04:18:24.784Z,66.42
2023-05-25T04:20:58.175Z,64.73
2023-05-25T04:23:33.960Z,68.91
2023-05-25T04:26:10.360Z,68.70
2023-05-25T04:28:47.294Z,67.29
2023-05-25T04:31:41.182Z,66.28
2023-05-25T04:34:33.859Z,66.79
2023-05-25T04:37:11.086Z,69.76
2023-05-25T04:39:45.980Z,67.75
2023-05-25T04:42:19.199Z,67.83
2023-05-25T04:44:55.654Z,67.68
2023-05-25T04:47:32.173Z,71.81
2023-05-25T04:50:05.728Z,72.22
2023-05-25T04:52:38.957Z,72.41
2023-05-25T04:55:12.521Z,76.64
2023-05-25T04:57:48.221Z,74.87
2023-05-25T05:00:23.111Z,73.56
2023-05-25T05:03:00.652Z,73.60
2023-05-25T05:05:33.952Z,72.94
2023-05-25T05:08:08.978Z,71.77
2023-05-25T05:10:42.327Z,74.83
2023-05-25T05:13:15.841Z,74.79
2023-05-25T05:15:50.348Z,73.35
2023-05-25T05:18:24.046Z,74.86
2023-05-25T05:20:57.874Z,76.17
2023-05-25T05:23:33.995Z,79.29
2023-05-25T05:26:11.032Z,78.12
2023-05-25T05:28:44.393Z,77.57
2023-05-25T05:31:19.888Z,77.06
2023-05-25T05:33:53.555Z,75.80
2023-05-25T05:36:29.796Z,79.85
2023-05-25T05:39:03.723Z,80.41
2023-05-25T05:41:37.004Z,78.53
2023-05-25T05:44:12.073Z,77.78
2023-05-25T05:46:46.984Z,83.82
2023-05-25T05:49:20.220Z,84.06
2023-05-25T05:51:53.387Z,81.26
2023-05-25T05:54:27.944Z,82.03
2023-05-25T05:57:05.054Z,83.41
2023-05-25T05:59:38.750Z,82.18
2023-05-25T06:02:13.399Z,87.14
2023-05-25T06:04:46.677Z,87.18
2023-05-25T06:07:19.986Z,87.63
2023-05-25T06:09:53.152Z,88.99
2023-05-25T06:12:26.582Z,91.68
2023-05-25T06:14:59.832Z,88.43
2023-05-25T06:17:35.845Z,89.94
2023-05-25T06:20:10.077Z,87.02
2023-05-25T06:22:43.491Z,82.48
2023-05-25T06:25:16.990Z,86.12
2023-05-25T06:27:50.930Z,86.65
2023-05-25T06:30:24.487Z,85.07
2023-05-25T06:33:00.027Z,83.79
2023-05-25T06:35:34.193Z,88.09
2023-05-25T06:38:07.413Z,84.35
2023-05-25T06:40:40.608Z,85.91
2023-05-25T06:43:13.923Z,88.53
2023-05-25T06:45:55.049Z,86.50
2023-05-25T06:48:30.004Z,87.91
2023-05-25T06:51:03.196Z,87.50
2023-05-25T06:53:39.652Z,84.18
2023-05-25T06:56:16.206Z,91.05
2023-05-25T06:58:49.429Z,84.74
2023-05-25T07:01:22.712Z,83.10
2023-05-25T07:03:57.239Z,83.17
2023-05-25T07:06:33.153Z,86.28
2023-05-25T07:09:06.544Z,88.47
2023-05-25T07:11:39.757Z,89.25
2023-05-25T07:14:13.177Z,92.30
2023-05-25T07:16:46.389Z,92.97
2023-05-25T07:19:20.869Z,98.71
2023-05-25T07:21:54.095Z,96.66
2023-05-25T07:24:27.245Z,94.43
2023-05-25T07:27:01.979Z,93.21
2023-05-25T07:29:35.122Z,93.34
2023-05-25T07:32:08.502Z,101.32
2023-05-25T07:34:43.029Z,97.25
2023-05-25T07:37:16.237Z,98.36
2023-05-25T07:39:49.520Z,101.63
2023-05-25T07:42:22.850Z,100.65
2023-05-25T07:44:58.443Z,106.92
2023-05-25T07:47:31.685Z,105.02
2023-05-25T07:50:07.199Z,106.51
2023-05-25T07:52:40.404Z,109.04
2023-05-25T07:55:13.629Z,107.33
2023-05-25T07:57:46.877Z,108.08
2023-05-25T08:00:20.920Z,106.44
2023-05-25T08:02:54.235Z,105.90
2023-05-25T08:05:28.966Z,102.76
2023-05-25T08:08:02.152Z,103.39
2023-05-25T08:10:35.457Z,97.44
2023-05-25T08:13:08.749Z,98.58
2023-05-25T08:15:42.066Z,103.30
2023-05-25T08:18:15.382Z,100.19
2023-05-25T08:20:50.001Z,103.73
2023-05-25T08:23:23.183Z,106.27
2023-05-25T08:25:56.512Z,101.77
2023-05-25T08:28:29.725Z,111.35
2023-05-25T08:31:03.017Z,108.15
2023-05-25T08:33:36.259Z,107.85
2023-05-25T08:36:11.340Z,107.78
2023-05-25T08:38:44.586Z,109.89
2023-05-25T08:41:17.794Z,101.48
2023-05-25T08:43:51.246Z,103.54
2023-05-25T08:46:31.608Z,91.72
2023-05-25T08:49:09.709Z,84.54
2023-05-25T08:51:50.918Z,81.06
2023-05-25T08:54:30.298Z,76.00
2023-05-25T08:57:12.142Z,77.79
2023-05-25T08:59:51.514Z,80.34
2023-05-25T09:02:37.181Z,78.02
2023-05-25T09:05:10.967Z,80.28
2023-05-25T09:07:46.224Z,80.93
2023-05-25T09:10:20.028Z,78.11
2023-05-25T09:12:54.907Z,89.55
2023-05-25T09:15:28.448Z,88.41
2023-05-25T09:18:01.728Z,87.65
2023-05-25T09:20:37.598Z,85.43
2023-05-25T09:23:12.625Z,86.40
2023-05-25T09:25:47.873Z,85.08
2023-05-25T09:28:26.169Z,77.21
2023-05-25T09:31:00.088Z,81.97
2023-05-25T09:33:35.558Z,79.23
2023-05-25T09:36:10.449Z,78.61
2023-05-25T09:38:47.378Z,85.27
2023-05-25T09:41:21.961Z,84.63
2023-05-25T09:44:06.525Z,81.46
2023-05-25T09:46:44.944Z,79.36
2023-05-25T09:49:19.878Z,68.30
2023-05-25T09:51:53.366Z,60.98
2023-05-25T09:54:30.854Z,65.01
2023-05-25T09:57:05.287Z,73.14
2023-05-25T09:59:38.771Z,63.68
2023-05-25T10:02:12.496Z,64.13
2023-05-25T10:04:46.491Z,67.24
2023-05-25T10:07:20.632Z,63.60
2023-05-25T10:09:57.113Z,69.60
2023-05-25T10:12:32.545Z,73.05
2023-05-25T10:15:08.922Z,70.99
2023-05-25T10:17:46.751Z,66.99
2023-05-25T10:20:22.196Z,70.26
2023-05-25T10:23:02.282Z,64.70
2023-05-25T10:25:41.934Z,65.78
2023-05-25T10:28:22.175Z,67.12
2023-05-25T10:30:58.342Z,69.94
2023-05-25T10:33:34.576Z,69.87
2023-05-25T10:36:11.533Z,78.31
2023-05-25T10:38:46.150Z,84.92
2023-05-25T10:41:21.791Z,80.58
2023-05-25T10:43:55.449Z,76.99
2023-05-25T10:46:30.298Z,72.15
2023-05-25T10:49:03.932Z,73.41
2023-05-25T10:51:41.227Z,82.24
2023-05-25T10:54:15.929Z,88.30
2023-05-25T10:57:11.412Z,93.70
2023-05-25T10:59:45.700Z,101.35
2023-05-25T11:02:23.641Z,110.21
2023-05-25T11:05:30.396Z,112.90
2023-05-25T11:08:06.424Z,106.66
2023-05-25T11:10:54.662Z,99.68
2023-05-25T11:13:40.845Z,92.87
2023-05-25T11:16:25.394Z,101.01
2023-05-25T11:19:00.042Z,104.15
2023-05-25T11:21:45.592Z,104.79
2023-05-25T11:24:19.268Z,83.08
2023-05-25T11:26:58.128Z,72.61
2023-05-25T11:29:37.271Z,66.46
2023-05-25T11:32:15.219Z,68.36
2023-05-25T11:34:50.189Z,64.98
2023-05-25T11:37:31.449Z,70.57
2023-05-25T11:40:09.362Z,65.64
2023-05-25T11:42:43.702Z,59.76
2023-05-25T11:45:18.591Z,62.20
2023-05-25T11:47:51.889Z,61.57
2023-05-25T11:50:25.253Z,69.41
2023-05-25T11:52:58.788Z,80.30
2023-05-25T11:55:32.106Z,81.46
2023-05-25T11:58:07.737Z,83.05
2023-05-25T12:00:42.562Z,83.02
2023-05-25T12:03:31.463Z,74.93
2023-05-25T12:06:05.280Z,62.09
2023-05-25T12:08:39.304Z,57.96
2023-05-25T12:11:13.458Z,54.94
2023-05-25T12:13:47.650Z,61.71
2023-05-25T12:16:22.967Z,67.80
2023-05-25T12:18:57.069Z,76.37
2023-05-25T12:21:31.060Z,69.49
2023-05-25T12:24:06.308Z,54.67
2023-05-25T12:26:49.180Z,59.13
2023-05-25T12:29:22.357Z,67.76
2023-05-25T12:32:04.598Z,67.72
2023-05-25T12:34:37.854Z,69.46
2023-05-25T12:37:20.690Z,69.63
2023-05-25T12:39:53.912Z,79.83
2023-05-25T12:42:27.784Z,91.21
2023-05-25T12:45:01.942Z,88.57
2023-05-25T12:47:36.594Z,89.87
2023-05-25T12:50:15.511Z,87.86
2023-05-25T12:52:49.664Z,85.63
2023-05-25T12:55:28.350Z,90.67
2023-05-25T12:58:03.432Z,95.97
2023-05-25T13:00:38.869Z,83.29
2023-05-25T13:03:20.115Z,81.56
2023-05-25T13:06:02.477Z,75.55
2023-05-25T13:08:35.907Z,75.89
2023-05-25T13:11:09.198Z,98.19
2023-05-25T13:13:42.379Z,97.34
2023-05-25T13:16:15.866Z,96.35
2023-05-25T13:18:51.332Z,93.14
2023-05-25T13:21:24.580Z,83.28
2023-05-25T13:23:57.828Z,68.87
2023-05-25T13:26:31.042Z,66.50
2023-05-25T13:29:04.691Z,67.40
2023-05-25T13:31:37.956Z,63.26
2023-05-25T13:34:12.611Z,56.37
2023-05-25T13:36:46.112Z,53.64
2023-05-25T13:39:19.946Z,49.32
2023-05-25T13:41:53.166Z,62.70
2023-05-25T13:44:26.802Z,64.39
2023-05-25T13:47:00.062Z,64.80
2023-05-25T13:49:34.625Z,62.83
2023-05-25T13:52:08.268Z,71.43
2023-05-25T13:54:41.705Z,75.42
2023-05-25T13:57:14.913Z,69.83
2023-05-25T13:59:48.112Z,62.22
2023-05-25T14:02:21.388Z,61.58
2023-05-25T14:04:57.189Z,59.05
2023-05-25T14:07:31.319Z,60.09
2023-05-25T14:10:05.403Z,61.32
2023-05-25T14:12:39.139Z,63.97
2023-05-25T14:15:12.979Z,65.72
2023-05-25T14:17:46.161Z,66.77
2023-05-25T14:20:25.757Z,69.35
2023-05-25T14:22:59.050Z,72.28
2023-05-25T14:25:32.308Z,70.24
2023-05-25T14:28:05.642Z,64.42
2023-05-25T14:30:38.768Z,63.48
2023-05-25T14:33:14.341Z,71.11
2023-05-25T14:35:49.044Z,78.63
2023-05-25T14:38:22.254Z,83.59
2023-05-25T14:40:55.407Z,82.61
2023-05-25T14:43:28.635Z,77.38
2023-05-25T14:46:01.812Z,74.08
2023-05-25T14:48:35.019Z,61.52
2023-05-25T14:51:09.672Z,58.73
2023-05-25T14:53:42.881Z,59.75
2023-05-25T14:56:16.273Z,58.74
2023-05-25T14:58:49.493Z,56.27
2023-05-25T15:01:25.062Z,59.18
2023-05-25T15:03:58.760Z,55.48
2023-05-25T15:06:33.614Z,57.58
2023-05-25T15:09:06.895Z,54.12
2023-05-25T15:11:40.085Z,57.51
2023-05-25T15:14:13.336Z,69.32
2023-05-25T15:16:46.579Z,70.93
2023-05-25T15:19:19.792Z,64.27
2023-05-25T15:21:54.294Z,62.84
2023-05-25T15:24:27.545Z,58.89
2023-05-25T15:27:01.618Z,58.18
2023-05-25T15:29:34.892Z,57.99
2023-05-25T15:32:10.309Z,53.09
2023-05-25T15:34:43.516Z,47.41
2023-05-25T15:37:18.106Z,53.28
2023-05-25T15:39:51.313Z,58.20
2023-05-25T15:42:24.453Z,61.75
2023-05-25T15:44:57.601Z,66.11
2023-05-25T15:47:31.057Z,79.59
2023-05-25T15:50:04.322Z,70.91
2023-05-25T15:52:38.979Z,67.81
2023-05-25T15:55:12.209Z,63.60
2023-05-25T15:57:45.368Z,63.88
2023-05-25T16:00:19.192Z,56.88
2023-05-25T16:02:52.354Z,56.86
2023-05-25T16:05:25.642Z,55.75
2023-05-25T16:08:00.175Z,56.17
2023-05-25T16:10:33.458Z,55.35
2023-05-25T16:13:06.649Z,53.72
2023-05-25T16:15:39.860Z,51.60
2023-05-25T16:18:13.042Z,50.09
2023-05-25T16:20:46.294Z,51.79
2023-05-25T16:23:20.894Z,54.17
2023-05-25T16:25:54.794Z,55.93
2023-05-25T16:28:30.205Z,52.80
2023-05-25T16:31:03.389Z,52.66
2023-05-25T16:33:36.577Z,54.00
2023-05-25T16:36:13.499Z,53.11
2023-05-25T16:38:48.025Z,50.99
2023-05-25T16:41:21.262Z,47.53
2023-05-25T16:43:54.633Z,42.33
2023-05-25T16:46:27.914Z,52.73
2023-05-25T16:49:01.100Z,59.35
2023-05-25T16:51:34.249Z,60.60
2023-05-25T16:54:09.185Z,54.42
2023-05-25T16:56:42.367Z,50.64
2023-05-25T16:59:15.728Z,44.22
2023-05-25T17:01:49.092Z,43.75
2023-05-25T17:04:22.384Z,42.50
2023-05-25T17:06:56.618Z,40.77
2023-05-25T17:09:31.108Z,44.84
2023-05-25T17:12:04.416Z,52.61
2023-05-25T17:14:37.614Z,55.06
2023-05-25T17:17:10.938Z,56.39
2023-05-25T17:19:44.069Z,58.41
2023-05-25T17:22:17.270Z,57.17
2023-05-25T17:24:51.788Z,58.53
2023-05-25T17:27:24.939Z,63.47
2023-05-25T17:29:58.147Z,66.41
2023-05-25T17:32:32.049Z,62.47
2023-05-25T17:35:08.191Z,60.48
2023-05-25T17:37:41.457Z,62.49
2023-05-25T17:40:16.346Z,62.09
2023-05-25T17:42:49.527Z,62.17
2023-05-25T17:45:24.933Z,58.71
2023-05-25T17:47:58.882Z,52.00
2023-05-25T17:50:32.071Z,50.42
2023-05-25T17:53:05.442Z,48.98
2023-05-25T17:55:40.197Z,50.03
2023-05-25T17:58:13.382Z,54.01
2023-05-25T18:00:49.148Z,50.49
2023-05-25T18:03:22.508Z,47.13
2023-05-25T18:05:55.819Z,49.57
2023-05-25T18:08:28.979Z,46.18
2023-05-25T18:11:03.496Z,47.20
2023-05-25T18:13:36.682Z,48.76
2023-05-25T18:16:09.832Z,49.43
2023-05-25T18:18:43.073Z,50.34
2023-05-25T18:21:16.262Z,46.92
2023-05-25T18:23:49.588Z,47.66
2023-05-25T18:26:24.100Z,42.59
2023-05-25T18:28:57.313Z,45.92
2023-05-25T18:31:32.096Z,45.52
2023-05-25T18:34:07.511Z,41.71
2023-05-25T18:36:40.718Z,41.92
2023-05-25T18:39:13.911Z,39.61
2023-05-25T18:41:48.490Z,36.63
2023-05-25T18:44:21.622Z,37.40
2023-05-25T18:46:56.499Z,39.70
2023-05-25T18:49:32.911Z,35.40
2023-05-25T18:52:08.264Z,37.07
2023-05-25T18:54:41.517Z,37.29
2023-05-25T18:57:16.303Z,38.34
2023-05-25T18:59:49.432Z,38.79
2023-05-25T19:02:25.699Z,36.22
2023-05-25T19:04:58.918Z,37.66
2023-05-25T19:07:32.032Z,40.10
2023-05-25T19:10:05.744Z,40.15
2023-05-25T19:12:40.313Z,37.22
2023-05-25T19:15:13.542Z,41.13
2023-05-25T19:17:47.149Z,41.90
2023-05-25T19:20:20.646Z,39.76
2023-05-25T19:22:53.942Z,40.39
2023-05-25T19:25:27.116Z,37.53
2023-05-25T19:28:04.697Z,35.00
2023-05-25T19:30:39.430Z,38.23
2023-05-25T19:33:12.792Z,39.62
2023-05-25T19:35:46.361Z,44.04
2023-05-25T19:38:19.813Z,41.48
2023-05-25T19:40:53.008Z,38.83
2023-05-25T19:43:27.676Z,37.03
2023-05-25T19:46:00.967Z,37.23
2023-05-25T19:48:34.245Z,36.49
2023-05-25T19:51:07.619Z,38.41
2023-05-25T19:53:40.869Z,39.64
2023-05-25T19:56:14.083Z,41.29
2023-05-25T19:58:48.679Z,42.47
2023-05-25T20:01:21.911Z,41.05
2023-05-25T20:03:55.160Z,36.29
2023-05-25T20:06:28.669Z,39.08
2023-05-25T20:09:01.876Z,41.36
2023-05-25T20:11:36.680Z,39.25
2023-05-25T20:14:11.378Z,47.58
2023-05-25T20:16:44.604Z,61.36
2023-05-25T20:19:19.097Z,47.56
2023-05-25T20:21:53.000Z,45.96
2023-05-25T20:24:26.146Z,45.34
2023-05-25T20:26:59.929Z,48.69
2023-05-25T20:29:34.630Z,54.16
2023-05-25T20:32:07.948Z,57.11
2023-05-25T20:34:41.280Z,51.65
2023-05-25T20:37:14.574Z,47.54
2023-05-25T20:39:47.736Z,47.60
2023-05-25T20:42:21.068Z,41.19
2023-05-25T20:44:55.804Z,38.90
2023-05-25T20:47:28.982Z,36.01
2023-05-25T20:50:02.184Z,36.36
2023-05-25T20:52:35.368Z,36.90
2023-05-25T20:55:09.125Z,36.29
2023-05-25T20:57:42.318Z,36.86
2023-05-25T21:00:18.673Z,39.22
2023-05-25T21:02:52.034Z,38.21
2023-05-25T21:05:25.262Z,39.24
2023-05-25T21:07:58.519Z,41.58
2023-05-25T21:10:31.683Z,41.17
2023-05-25T21:13:04.894Z,40.17
2023-05-25T21:15:39.432Z,38.91
2023-05-25T21:18:12.654Z,41.98
2023-05-25T21:20:46.179Z,40.93
2023-05-25T21:23:19.438Z,39.74
2023-05-25T21:25:52.752Z,38.86
2023-05-25T21:28:26.440Z,40.26
2023-05-25T21:31:01.149Z,40.85
2023-05-25T21:33:35.956Z,40.69
2023-05-25T21:36:09.567Z,38.11
2023-05-25T21:38:45.268Z,42.79
2023-05-25T21:41:18.735Z,38.86
2023-05-25T21:43:51.970Z,41.97
2023-05-25T21:46:26.549Z,39.94
2023-05-25T21:48:59.823Z,40.78
2023-05-25T21:51:33.131Z,40.80
2023-05-25T21:54:06.441Z,43.09
2023-05-25T21:56:42.119Z,40.57
2023-05-25T21:59:17.744Z,42.41
2023-05-25T22:01:52.275Z,41.15
2023-05-25T22:04:25.570Z,41.14
2023-05-25T22:06:58.732Z,42.36
2023-05-25T22:09:32.604Z,42.29
2023-05-25T22:12:08.361Z,42.03
2023-05-25T22:14:41.490Z,42.27
2023-05-25T22:17:17.452Z,41.90
2023-05-25T22:20:03.282Z,44.45
2023-05-25T22:22:40.946Z,43.03
2023-05-25T22:25:14.760Z,41.49
2023-05-25T22:27:47.883Z,41.00
2023-05-25T22:30:21.240Z,42.77
2023-05-25T22:32:55.916Z,41.91
2023-05-25T22:35:29.124Z,44.62
2023-05-25T22:38:02.257Z,43.75
2023-05-25T22:40:35.469Z,43.48
2023-05-25T22:43:12.746Z,42.71
2023-05-25T22:45:46.367Z,44.06
2023-05-25T22:48:21.092Z,43.94
2023-05-25T22:50:54.300Z,44.20
2023-05-25T22:53:27.751Z,44.74
2023-05-25T22:56:00.932Z,50.33
2023-05-25T22:58:34.104Z,50.05
2023-05-25T23:01:07.324Z,47.49
2023-05-25T23:03:44.403Z,46.20
2023-05-25T23:06:17.754Z,51.45
2023-05-25T23:08:51.041Z,49.95
2023-05-25T23:11:25.427Z,49.67
2023-05-25T23:14:00.705Z,51.92
2023-05-25T23:16:34.179Z,51.23
2023-05-25T23:19:08.738Z,51.52
2023-05-25T23:21:42.016Z,54.03
2023-05-25T23:24:15.336Z,52.66
2023-05-25T23:26:48.554Z,50.63
2023-05-25T23:29:21.811Z,53.52
2023-05-25T23:31:55.068Z,56.66
2023-05-25T23:34:29.635Z,52.57
2023-05-25T23:37:06.346Z,54.21
2023-05-25T23:39:39.773Z,53.39
2023-05-25T23:42:15.422Z,50.85
2023-05-25T23:44:48.634Z,52.57
2023-05-25T23:47:21.853Z,53.37
2023-05-25T23:49:58.323Z,54.65
2023-05-25T23:52:31.594Z,50.31
2023-05-25T23:55:06.925Z,51.37
2023-05-25T23:57:43.157Z,51.18
